sensor_id;sensor_type;location;lat;lon;timestamp;P1;durP1;ratioP1;P2;durP2;ratioP2
53833;SDS011;39735;51.432;5.482;2023-11-18T00:01:14;57.15;;;30.85;;
53833;SDS011;39735;51.432;5.482;2023-11-18T00:03:39;63.67;;;33.40;;
53833;SDS011;39735;51.432;5.482;2023-11-18T00:06:05;52.95;;;29.88;;
53833;SDS011;39735;51.432;5.482;2023-11-18T00:08:30;60.95;;;30.67;;
53833;SDS011;39735;51.432;5.482;2023-11-18T00:10:56;53.83;;;29.27;;
53833;SDS011;39735;51.432;5.482;2023-11-18T00:13:21;51.63;;;29.63;;
53833;SDS011;39735;51.432;5.482;2023-11-18T00:15:47;56.38;;;33.45;;
53833;SDS011;39735;51.432;5.482;2023-11-18T00:18:13;53.20;;;30.20;;
53833;SDS011;39735;51.432;5.482;2023-11-18T00:20:38;60.53;;;30.58;;
53833;SDS011;39735;51.432;5.482;2023-11-18T00:23:03;44.70;;;28.33;;
53833;SDS011;39735;51.432;5.482;2023-11-18T00:25:31;56.65;;;29.88;;
53833;SDS011;39735;51.432;5.482;2023-11-18T00:27:58;57.70;;;30.52;;
53833;SDS011;39735;51.432;5.482;2023-11-18T00:30:24;55.53;;;31.75;;
53833;SDS011;39735;51.432;5.482;2023-11-18T00:32:49;61.28;;;31.77;;
53833;SDS011;39735;51.432;5.482;2023-11-18T00:35:14;56.35;;;29.75;;
53833;SDS011;39735;51.432;5.482;2023-11-18T00:37:40;47.60;;;26.80;;
53833;SDS011;39735;51.432;5.482;2023-11-18T00:40:06;58.00;;;25.23;;
53833;SDS011;39735;51.432;5.482;2023-11-18T00:42:32;49.63;;;30.63;;
53833;SDS011;39735;51.432;5.482;2023-11-18T00:44:57;62.45;;;31.77;;
53833;SDS011;39735;51.432;5.482;2023-11-18T00:47:22;44.47;;;29.83;;
53833;SDS011;39735;51.432;5.482;2023-11-18T00:49:48;60.78;;;31.98;;
53833;SDS011;39735;51.432;5.482;2023-11-18T00:52:14;56.90;;;28.45;;
53833;SDS011;39735;51.432;5.482;2023-11-18T00:54:40;45.97;;;28.77;;
53833;SDS011;39735;51.432;5.482;2023-11-18T00:57:05;49.92;;;28.10;;
53833;SDS011;39735;51.432;5.482;2023-11-18T00:59:30;56.42;;;29.13;;
53833;SDS011;39735;51.432;5.482;2023-11-18T01:01:56;56.30;;;29.58;;
53833;SDS011;39735;51.432;5.482;2023-11-18T01:04:21;53.15;;;28.58;;
53833;SDS011;39735;51.432;5.482;2023-11-18T01:06:46;52.42;;;30.38;;
53833;SDS011;39735;51.432;5.482;2023-11-18T01:09:12;47.30;;;27.10;;
53833;SDS011;39735;51.432;5.482;2023-11-18T01:11:38;47.13;;;27.75;;
53833;SDS011;39735;51.432;5.482;2023-11-18T01:14:04;68.97;;;32.55;;
53833;SDS011;39735;51.432;5.482;2023-11-18T01:16:29;33.88;;;25.38;;
53833;SDS011;39735;51.432;5.482;2023-11-18T01:18:54;38.63;;;26.67;;
53833;SDS011;39735;51.432;5.482;2023-11-18T01:21:20;64.32;;;32.03;;
53833;SDS011;39735;51.432;5.482;2023-11-18T01:23:45;41.40;;;28.60;;
53833;SDS011;39735;51.432;5.482;2023-11-18T01:26:10;46.55;;;26.05;;
53833;SDS011;39735;51.432;5.482;2023-11-18T01:28:37;45.53;;;27.60;;
53833;SDS011;39735;51.432;5.482;2023-11-18T01:31:06;73.63;;;30.77;;
53833;SDS011;39735;51.432;5.482;2023-11-18T01:33:43;55.53;;;28.67;;
53833;SDS011;39735;51.432;5.482;2023-11-18T01:36:10;71.88;;;28.58;;
53833;SDS011;39735;51.432;5.482;2023-11-18T01:38:35;63.92;;;30.23;;
53833;SDS011;39735;51.432;5.482;2023-11-18T01:41:02;62.85;;;31.70;;
53833;SDS011;39735;51.432;5.482;2023-11-18T01:43:27;40.30;;;27.15;;
53833;SDS011;39735;51.432;5.482;2023-11-18T01:45:53;59.67;;;30.60;;
53833;SDS011;39735;51.432;5.482;2023-11-18T01:48:18;48.65;;;29.77;;
53833;SDS011;39735;51.432;5.482;2023-11-18T01:50:44;47.83;;;29.02;;
53833;SDS011;39735;51.432;5.482;2023-11-18T01:53:10;62.60;;;28.27;;
53833;SDS011;39735;51.432;5.482;2023-11-18T01:55:36;50.28;;;28.65;;
53833;SDS011;39735;51.432;5.482;2023-11-18T01:58:02;65.95;;;30.85;;
53833;SDS011;39735;51.432;5.482;2023-11-18T02:00:33;44.47;;;27.65;;
53833;SDS011;39735;51.432;5.482;2023-11-18T02:02:59;56.85;;;30.55;;
53833;SDS011;39735;51.432;5.482;2023-11-18T02:05:25;58.70;;;32.67;;
53833;SDS011;39735;51.432;5.482;2023-11-18T02:07:50;52.70;;;29.88;;
53833;SDS011;39735;51.432;5.482;2023-11-18T02:10:16;55.33;;;31.23;;
53833;SDS011;39735;51.432;5.482;2023-11-18T02:13:19;52.60;;;30.65;;
53833;SDS011;39735;51.432;5.482;2023-11-18T02:15:34;53.83;;;31.13;;
53833;SDS011;39735;51.432;5.482;2023-11-18T02:18:01;57.25;;;33.05;;
53833;SDS011;39735;51.432;5.482;2023-11-18T02:20:27;46.00;;;30.10;;
53833;SDS011;39735;51.432;5.482;2023-11-18T02:22:53;57.85;;;33.47;;
53833;SDS011;39735;51.432;5.482;2023-11-18T02:25:19;54.33;;;31.42;;
53833;SDS011;39735;51.432;5.482;2023-11-18T02:27:45;57.83;;;31.17;;
53833;SDS011;39735;51.432;5.482;2023-11-18T02:30:12;49.92;;;30.85;;
53833;SDS011;39735;51.432;5.482;2023-11-18T02:32:45;43.28;;;27.05;;
53833;SDS011;39735;51.432;5.482;2023-11-18T02:35:18;51.28;;;30.30;;
53833;SDS011;39735;51.432;5.482;2023-11-18T02:37:46;47.67;;;29.77;;
53833;SDS011;39735;51.432;5.482;2023-11-18T02:40:54;53.88;;;29.85;;
53833;SDS011;39735;51.432;5.482;2023-11-18T02:43:00;54.22;;;28.20;;
53833;SDS011;39735;51.432;5.482;2023-11-18T02:45:26;50.75;;;27.67;;
53833;SDS011;39735;51.432;5.482;2023-11-18T02:47:52;66.97;;;30.55;;
53833;SDS011;39735;51.432;5.482;2023-11-18T02:50:22;54.22;;;30.58;;
53833;SDS011;39735;51.432;5.482;2023-11-18T02:52:47;41.90;;;27.35;;
53833;SDS011;39735;51.432;5.482;2023-11-18T02:55:13;51.25;;;27.88;;
53833;SDS011;39735;51.432;5.482;2023-11-18T02:57:38;51.67;;;27.80;;
53833;SDS011;39735;51.432;5.482;2023-11-18T03:00:04;46.45;;;28.88;;
53833;SDS011;39735;51.432;5.482;2023-11-18T03:02:30;54.28;;;28.60;;
53833;SDS011;39735;51.432;5.482;2023-11-18T03:04:59;56.30;;;29.75;;
53833;SDS011;39735;51.432;5.482;2023-11-18T03:07:24;45.28;;;26.30;;
53833;SDS011;39735;51.432;5.482;2023-11-18T03:09:52;51.97;;;25.85;;
53833;SDS011;39735;51.432;5.482;2023-11-18T03:12:17;58.42;;;32.67;;
53833;SDS011;39735;51.432;5.482;2023-11-18T03:14:42;54.40;;;27.30;;
53833;SDS011;39735;51.432;5.482;2023-11-18T03:17:08;45.80;;;25.52;;
53833;SDS011;39735;51.432;5.482;2023-11-18T03:19:35;42.60;;;25.25;;
53833;SDS011;39735;51.432;5.482;2023-11-18T03:22:00;45.33;;;26.52;;
53833;SDS011;39735;51.432;5.482;2023-11-18T03:24:26;45.83;;;24.30;;
53833;SDS011;39735;51.432;5.482;2023-11-18T03:26:53;39.38;;;24.27;;
53833;SDS011;39735;51.432;5.482;2023-11-18T03:29:19;44.53;;;24.27;;
53833;SDS011;39735;51.432;5.482;2023-11-18T03:31:44;43.63;;;26.38;;
53833;SDS011;39735;51.432;5.482;2023-11-18T03:34:13;39.00;;;23.40;;
53833;SDS011;39735;51.432;5.482;2023-11-18T03:36:38;44.72;;;28.67;;
53833;SDS011;39735;51.432;5.482;2023-11-18T03:39:03;46.40;;;27.67;;
53833;SDS011;39735;51.432;5.482;2023-11-18T03:41:29;34.92;;;24.15;;
53833;SDS011;39735;51.432;5.482;2023-11-18T03:43:55;48.50;;;25.13;;
53833;SDS011;39735;51.432;5.482;2023-11-18T03:46:20;44.90;;;24.25;;
53833;SDS011;39735;51.432;5.482;2023-11-18T03:48:45;44.05;;;27.55;;
53833;SDS011;39735;51.432;5.482;2023-11-18T03:51:11;59.45;;;26.38;;
53833;SDS011;39735;51.432;5.482;2023-11-18T03:53:36;40.08;;;25.33;;
53833;SDS011;39735;51.432;5.482;2023-11-18T03:56:01;49.53;;;24.42;;
53833;SDS011;39735;51.432;5.482;2023-11-18T03:58:29;85.40;;;27.02;;
53833;SDS011;39735;51.432;5.482;2023-11-18T04:00:57;47.03;;;24.50;;
53833;SDS011;39735;51.432;5.482;2023-11-18T04:03:23;41.38;;;23.75;;
53833;SDS011;39735;51.432;5.482;2023-11-18T04:05:48;44.42;;;23.80;;
53833;SDS011;39735;51.432;5.482;2023-11-18T04:08:13;52.88;;;26.85;;
53833;SDS011;39735;51.432;5.482;2023-11-18T04:10:38;42.13;;;23.92;;
53833;SDS011;39735;51.432;5.482;2023-11-18T04:13:04;45.92;;;27.63;;
53833;SDS011;39735;51.432;5.482;2023-11-18T04:15:29;45.50;;;23.73;;
53833;SDS011;39735;51.432;5.482;2023-11-18T04:17:55;45.45;;;22.85;;
53833;SDS011;39735;51.432;5.482;2023-11-18T04:20:20;39.45;;;25.00;;
53833;SDS011;39735;51.432;5.482;2023-11-18T04:22:45;42.75;;;24.98;;
53833;SDS011;39735;51.432;5.482;2023-11-18T04:25:11;52.72;;;25.83;;
53833;SDS011;39735;51.432;5.482;2023-11-18T04:27:40;38.28;;;23.23;;
53833;SDS011;39735;51.432;5.482;2023-11-18T04:30:05;53.00;;;26.73;;
53833;SDS011;39735;51.432;5.482;2023-11-18T04:32:31;58.30;;;25.27;;
53833;SDS011;39735;51.432;5.482;2023-11-18T04:34:58;54.42;;;24.23;;
53833;SDS011;39735;51.432;5.482;2023-11-18T04:37:23;37.00;;;23.58;;
53833;SDS011;39735;51.432;5.482;2023-11-18T04:39:48;37.53;;;22.30;;
53833;SDS011;39735;51.432;5.482;2023-11-18T04:42:14;52.88;;;25.10;;
53833;SDS011;39735;51.432;5.482;2023-11-18T04:44:40;40.83;;;25.33;;
53833;SDS011;39735;51.432;5.482;2023-11-18T04:47:06;38.13;;;20.98;;
53833;SDS011;39735;51.432;5.482;2023-11-18T04:49:31;42.30;;;22.10;;
53833;SDS011;39735;51.432;5.482;2023-11-18T04:51:56;46.95;;;22.42;;
53833;SDS011;39735;51.432;5.482;2023-11-18T04:54:23;40.22;;;22.02;;
53833;SDS011;39735;51.432;5.482;2023-11-18T04:56:49;42.05;;;22.27;;
53833;SDS011;39735;51.432;5.482;2023-11-18T04:59:14;45.72;;;22.38;;
53833;SDS011;39735;51.432;5.482;2023-11-18T05:01:39;41.95;;;23.35;;
53833;SDS011;39735;51.432;5.482;2023-11-18T05:04:05;33.15;;;20.75;;
53833;SDS011;39735;51.432;5.482;2023-11-18T05:06:33;32.55;;;19.55;;
53833;SDS011;39735;51.432;5.482;2023-11-18T05:08:58;39.90;;;21.65;;
53833;SDS011;39735;51.432;5.482;2023-11-18T05:11:23;43.58;;;20.80;;
53833;SDS011;39735;51.432;5.482;2023-11-18T05:13:48;37.38;;;19.98;;
53833;SDS011;39735;51.432;5.482;2023-11-18T05:16:14;35.50;;;21.05;;
53833;SDS011;39735;51.432;5.482;2023-11-18T05:18:39;52.83;;;23.52;;
53833;SDS011;39735;51.432;5.482;2023-11-18T05:21:05;32.38;;;17.80;;
53833;SDS011;39735;51.432;5.482;2023-11-18T05:23:31;39.50;;;19.92;;
53833;SDS011;39735;51.432;5.482;2023-11-18T05:25:59;40.70;;;21.95;;
53833;SDS011;39735;51.432;5.482;2023-11-18T05:28:24;30.20;;;18.25;;
53833;SDS011;39735;51.432;5.482;2023-11-18T05:30:50;30.98;;;18.88;;
53833;SDS011;39735;51.432;5.482;2023-11-18T05:33:15;37.13;;;19.38;;
53833;SDS011;39735;51.432;5.482;2023-11-18T05:35:42;39.42;;;20.90;;
53833;SDS011;39735;51.432;5.482;2023-11-18T05:38:13;38.45;;;19.85;;
53833;SDS011;39735;51.432;5.482;2023-11-18T05:40:41;32.75;;;18.95;;
53833;SDS011;39735;51.432;5.482;2023-11-18T05:43:08;31.10;;;20.15;;
53833;SDS011;39735;51.432;5.482;2023-11-18T05:45:41;49.53;;;19.13;;
53833;SDS011;39735;51.432;5.482;2023-11-18T05:48:26;29.50;;;18.42;;
53833;SDS011;39735;51.432;5.482;2023-11-18T05:50:51;34.40;;;17.25;;
53833;SDS011;39735;51.432;5.482;2023-11-18T05:53:16;45.15;;;18.75;;
53833;SDS011;39735;51.432;5.482;2023-11-18T05:55:42;36.28;;;20.05;;
53833;SDS011;39735;51.432;5.482;2023-11-18T05:58:07;30.92;;;18.83;;
53833;SDS011;39735;51.432;5.482;2023-11-18T06:00:33;25.27;;;16.40;;
53833;SDS011;39735;51.432;5.482;2023-11-18T06:02:59;36.55;;;19.15;;
53833;SDS011;39735;51.432;5.482;2023-11-18T06:05:25;25.67;;;16.45;;
53833;SDS011;39735;51.432;5.482;2023-11-18T06:07:51;38.10;;;16.50;;
53833;SDS011;39735;51.432;5.482;2023-11-18T06:10:16;35.03;;;18.58;;
53833;SDS011;39735;51.432;5.482;2023-11-18T06:12:41;51.88;;;19.35;;
53833;SDS011;39735;51.432;5.482;2023-11-18T06:15:07;23.15;;;15.27;;
53833;SDS011;39735;51.432;5.482;2023-11-18T06:17:34;33.10;;;15.85;;
53833;SDS011;39735;51.432;5.482;2023-11-18T06:19:59;28.17;;;16.20;;
53833;SDS011;39735;51.432;5.482;2023-11-18T06:22:24;23.53;;;14.27;;
53833;SDS011;39735;51.432;5.482;2023-11-18T06:24:50;31.15;;;16.38;;
53833;SDS011;39735;51.432;5.482;2023-11-18T06:27:16;26.98;;;15.60;;
53833;SDS011;39735;51.432;5.482;2023-11-18T06:29:43;54.85;;;16.33;;
53833;SDS011;39735;51.432;5.482;2023-11-18T06:32:08;33.38;;;17.15;;
53833;SDS011;39735;51.432;5.482;2023-11-18T06:34:33;33.80;;;14.88;;
53833;SDS011;39735;51.432;5.482;2023-11-18T06:36:58;31.27;;;15.32;;
53833;SDS011;39735;51.432;5.482;2023-11-18T06:39:24;24.17;;;14.48;;
53833;SDS011;39735;51.432;5.482;2023-11-18T06:41:55;35.53;;;15.10;;
53833;SDS011;39735;51.432;5.482;2023-11-18T06:44:21;34.35;;;14.35;;
53833;SDS011;39735;51.432;5.482;2023-11-18T06:46:49;27.52;;;14.32;;
53833;SDS011;39735;51.432;5.482;2023-11-18T06:49:15;21.77;;;12.27;;
53833;SDS011;39735;51.432;5.482;2023-11-18T06:51:41;25.02;;;13.52;;
53833;SDS011;39735;51.432;5.482;2023-11-18T06:54:06;27.05;;;13.50;;
53833;SDS011;39735;51.432;5.482;2023-11-18T06:56:38;19.88;;;11.30;;
53833;SDS011;39735;51.432;5.482;2023-11-18T06:59:07;23.55;;;11.35;;
53833;SDS011;39735;51.432;5.482;2023-11-18T07:01:35;21.95;;;11.60;;
53833;SDS011;39735;51.432;5.482;2023-11-18T07:04:01;48.13;;;12.68;;
53833;SDS011;39735;51.432;5.482;2023-11-18T07:06:26;21.20;;;11.57;;
53833;SDS011;39735;51.432;5.482;2023-11-18T07:08:52;47.55;;;11.52;;
53833;SDS011;39735;51.432;5.482;2023-11-18T07:11:18;18.38;;;11.07;;
53833;SDS011;39735;51.432;5.482;2023-11-18T07:13:44;16.17;;;10.32;;
53833;SDS011;39735;51.432;5.482;2023-11-18T07:16:10;18.15;;;9.38;;
53833;SDS011;39735;51.432;5.482;2023-11-18T07:18:35;19.75;;;10.57;;
53833;SDS011;39735;51.432;5.482;2023-11-18T07:21:02;16.15;;;8.18;;
53833;SDS011;39735;51.432;5.482;2023-11-18T07:23:29;19.38;;;10.25;;
53833;SDS011;39735;51.432;5.482;2023-11-18T07:25:54;24.63;;;9.35;;
53833;SDS011;39735;51.432;5.482;2023-11-18T07:28:21;15.57;;;9.48;;
53833;SDS011;39735;51.432;5.482;2023-11-18T07:30:47;32.25;;;9.18;;
53833;SDS011;39735;51.432;5.482;2023-11-18T07:33:15;18.23;;;8.15;;
53833;SDS011;39735;51.432;5.482;2023-11-18T07:35:41;14.75;;;9.05;;
53833;SDS011;39735;51.432;5.482;2023-11-18T07:38:06;15.88;;;8.55;;
53833;SDS011;39735;51.432;5.482;2023-11-18T07:40:35;23.60;;;11.05;;
53833;SDS011;39735;51.432;5.482;2023-11-18T07:43:02;15.38;;;7.97;;
53833;SDS011;39735;51.432;5.482;2023-11-18T07:45:28;11.13;;;8.75;;
53833;SDS011;39735;51.432;5.482;2023-11-18T07:47:54;17.23;;;7.18;;
53833;SDS011;39735;51.432;5.482;2023-11-18T07:50:19;12.43;;;7.95;;
53833;SDS011;39735;51.432;5.482;2023-11-18T07:52:48;21.60;;;8.25;;
53833;SDS011;39735;51.432;5.482;2023-11-18T07:55:14;25.27;;;7.75;;
53833;SDS011;39735;51.432;5.482;2023-11-18T07:57:39;20.83;;;8.38;;
53833;SDS011;39735;51.432;5.482;2023-11-18T08:00:05;25.73;;;9.57;;
53833;SDS011;39735;51.432;5.482;2023-11-18T08:02:34;26.08;;;9.57;;
53833;SDS011;39735;51.432;5.482;2023-11-18T08:05:00;13.40;;;7.68;;
53833;SDS011;39735;51.432;5.482;2023-11-18T08:07:27;9.05;;;7.15;;
53833;SDS011;39735;51.432;5.482;2023-11-18T08:09:53;13.98;;;7.25;;
53833;SDS011;39735;51.432;5.482;2023-11-18T08:12:19;12.93;;;7.47;;
53833;SDS011;39735;51.432;5.482;2023-11-18T08:14:45;9.95;;;6.40;;
53833;SDS011;39735;51.432;5.482;2023-11-18T08:17:10;17.90;;;6.97;;
53833;SDS011;39735;51.432;5.482;2023-11-18T08:19:37;11.30;;;7.25;;
53833;SDS011;39735;51.432;5.482;2023-11-18T08:22:02;17.38;;;7.15;;
53833;SDS011;39735;51.432;5.482;2023-11-18T08:24:28;27.92;;;8.10;;
53833;SDS011;39735;51.432;5.482;2023-11-18T08:26:54;34.55;;;11.93;;
53833;SDS011;39735;51.432;5.482;2023-11-18T08:29:19;16.10;;;7.10;;
53833;SDS011;39735;51.432;5.482;2023-11-18T08:31:45;14.23;;;7.28;;
53833;SDS011;39735;51.432;5.482;2023-11-18T08:34:11;25.05;;;10.60;;
53833;SDS011;39735;51.432;5.482;2023-11-18T08:36:36;10.93;;;7.88;;
53833;SDS011;39735;51.432;5.482;2023-11-18T08:39:02;35.42;;;8.23;;
53833;SDS011;39735;51.432;5.482;2023-11-18T08:41:28;20.80;;;6.85;;
53833;SDS011;39735;51.432;5.482;2023-11-18T08:43:56;32.97;;;9.23;;
53833;SDS011;39735;51.432;5.482;2023-11-18T08:46:22;12.23;;;5.95;;
53833;SDS011;39735;51.432;5.482;2023-11-18T08:48:47;44.88;;;9.98;;
53833;SDS011;39735;51.432;5.482;2023-11-18T08:51:13;21.70;;;8.23;;
53833;SDS011;39735;51.432;5.482;2023-11-18T08:53:38;31.48;;;6.82;;
53833;SDS011;39735;51.432;5.482;2023-11-18T08:56:08;14.35;;;6.97;;
53833;SDS011;39735;51.432;5.482;2023-11-18T08:58:38;16.10;;;7.03;;
53833;SDS011;39735;51.432;5.482;2023-11-18T09:01:05;32.53;;;6.05;;
53833;SDS011;39735;51.432;5.482;2023-11-18T09:03:31;34.58;;;6.75;;
53833;SDS011;39735;51.432;5.482;2023-11-18T09:06:08;8.48;;;6.45;;
53833;SDS011;39735;51.432;5.482;2023-11-18T09:11:08;13.70;;;5.65;;
53833;SDS011;39735;51.432;5.482;2023-11-18T09:13:35;26.50;;;6.82;;
53833;SDS011;39735;51.432;5.482;2023-11-18T09:16:02;25.10;;;10.38;;
53833;SDS011;39735;51.432;5.482;2023-11-18T09:18:28;14.10;;;7.68;;
53833;SDS011;39735;51.432;5.482;2023-11-18T09:20:55;16.60;;;6.72;;
53833;SDS011;39735;51.432;5.482;2023-11-18T09:23:21;14.73;;;6.50;;
53833;SDS011;39735;51.432;5.482;2023-11-18T09:25:48;19.85;;;7.15;;
53833;SDS011;39735;51.432;5.482;2023-11-18T09:28:14;25.05;;;6.65;;
53833;SDS011;39735;51.432;5.482;2023-11-18T09:30:41;37.72;;;6.30;;
53833;SDS011;39735;51.432;5.482;2023-11-18T09:33:16;15.60;;;6.70;;
53833;SDS011;39735;51.432;5.482;2023-11-18T09:35:50;17.55;;;7.00;;
53833;SDS011;39735;51.432;5.482;2023-11-18T09:38:17;37.38;;;6.65;;
53833;SDS011;39735;51.432;5.482;2023-11-18T09:40:42;31.42;;;10.25;;
53833;SDS011;39735;51.432;5.482;2023-11-18T09:43:08;14.45;;;6.75;;
53833;SDS011;39735;51.432;5.482;2023-11-18T09:45:34;15.30;;;7.32;;
53833;SDS011;39735;51.432;5.482;2023-11-18T09:48:01;16.38;;;5.75;;
53833;SDS011;39735;51.432;5.482;2023-11-18T09:50:26;21.08;;;4.63;;
53833;SDS011;39735;51.432;5.482;2023-11-18T09:52:54;13.07;;;6.10;;
53833;SDS011;39735;51.432;5.482;2023-11-18T09:55:25;10.25;;;6.05;;
53833;SDS011;39735;51.432;5.482;2023-11-18T09:57:52;10.18;;;4.95;;
53833;SDS011;39735;51.432;5.482;2023-11-18T10:00:22;18.65;;;7.28;;
53833;SDS011;39735;51.432;5.482;2023-11-18T10:02:52;10.73;;;5.70;;
53833;SDS011;39735;51.432;5.482;2023-11-18T10:05:19;29.48;;;7.68;;
53833;SDS011;39735;51.432;5.482;2023-11-18T10:07:46;15.65;;;6.50;;
53833;SDS011;39735;51.432;5.482;2023-11-18T10:10:12;21.77;;;6.03;;
53833;SDS011;39735;51.432;5.482;2023-11-18T10:12:43;22.88;;;7.03;;
53833;SDS011;39735;51.432;5.482;2023-11-18T10:15:17;24.88;;;6.13;;
53833;SDS011;39735;51.432;5.482;2023-11-18T10:17:43;17.95;;;4.28;;
53833;SDS011;39735;51.432;5.482;2023-11-18T10:23:06;11.35;;;4.05;;
53833;SDS011;39735;51.432;5.482;2023-11-18T10:25:35;14.32;;;6.03;;
53833;SDS011;39735;51.432;5.482;2023-11-18T10:28:01;10.13;;;6.07;;
53833;SDS011;39735;51.432;5.482;2023-11-18T10:30:27;8.02;;;3.40;;
53833;SDS011;39735;51.432;5.482;2023-11-18T10:32:56;23.20;;;5.00;;
53833;SDS011;39735;51.432;5.482;2023-11-18T10:35:30;19.52;;;5.35;;
53833;SDS011;39735;51.432;5.482;2023-11-18T10:37:55;15.50;;;5.35;;
53833;SDS011;39735;51.432;5.482;2023-11-18T10:40:22;20.15;;;6.50;;
53833;SDS011;39735;51.432;5.482;2023-11-18T10:42:49;22.33;;;4.95;;
53833;SDS011;39735;51.432;5.482;2023-11-18T10:45:15;20.25;;;6.63;;
53833;SDS011;39735;51.432;5.482;2023-11-18T10:47:48;20.92;;;5.13;;
53833;SDS011;39735;51.432;5.482;2023-11-18T10:50:13;17.90;;;5.88;;
53833;SDS011;39735;51.432;5.482;2023-11-18T10:52:38;13.90;;;3.67;;
53833;SDS011;39735;51.432;5.482;2023-11-18T10:55:05;29.60;;;6.15;;
53833;SDS011;39735;51.432;5.482;2023-11-18T10:57:36;16.17;;;5.18;;
53833;SDS011;39735;51.432;5.482;2023-11-18T11:00:05;30.50;;;5.53;;
53833;SDS011;39735;51.432;5.482;2023-11-18T11:02:38;13.98;;;4.78;;
53833;SDS011;39735;51.432;5.482;2023-11-18T11:05:06;16.90;;;4.88;;
53833;SDS011;39735;51.432;5.482;2023-11-18T11:07:34;19.05;;;5.05;;
53833;SDS011;39735;51.432;5.482;2023-11-18T11:10:00;20.85;;;6.88;;
53833;SDS011;39735;51.432;5.482;2023-11-18T11:12:29;12.00;;;7.95;;
53833;SDS011;39735;51.432;5.482;2023-11-18T11:14:59;16.95;;;5.57;;
53833;SDS011;39735;51.432;5.482;2023-11-18T11:17:24;20.05;;;4.18;;
53833;SDS011;39735;51.432;5.482;2023-11-18T11:22:25;10.93;;;3.42;;
53833;SDS011;39735;51.432;5.482;2023-11-18T11:25:14;9.90;;;4.57;;
53833;SDS011;39735;51.432;5.482;2023-11-18T11:27:50;13.43;;;3.60;;
53833;SDS011;39735;51.432;5.482;2023-11-18T11:30:28;17.08;;;4.05;;
53833;SDS011;39735;51.432;5.482;2023-11-18T11:33:09;21.23;;;3.35;;
53833;SDS011;39735;51.432;5.482;2023-11-18T11:35:37;18.75;;;4.53;;
53833;SDS011;39735;51.432;5.482;2023-11-18T11:38:05;25.77;;;3.88;;
53833;SDS011;39735;51.432;5.482;2023-11-18T11:40:37;19.35;;;3.95;;
53833;SDS011;39735;51.432;5.482;2023-11-18T11:43:03;22.27;;;4.20;;
53833;SDS011;39735;51.432;5.482;2023-11-18T11:45:30;35.33;;;5.20;;
53833;SDS011;39735;51.432;5.482;2023-11-18T11:47:56;14.50;;;2.47;;
53833;SDS011;39735;51.432;5.482;2023-11-18T11:50:38;8.68;;;3.10;;
53833;SDS011;39735;51.432;5.482;2023-11-18T11:53:10;20.48;;;3.50;;
53833;SDS011;39735;51.432;5.482;2023-11-18T11:55:44;8.85;;;2.75;;
53833;SDS011;39735;51.432;5.482;2023-11-18T11:58:28;13.88;;;2.92;;
53833;SDS011;39735;51.432;5.482;2023-11-18T12:00:53;16.40;;;3.20;;
53833;SDS011;39735;51.432;5.482;2023-11-18T12:03:21;14.05;;;3.00;;
53833;SDS011;39735;51.432;5.482;2023-11-18T12:05:47;20.13;;;3.65;;
53833;SDS011;39735;51.432;5.482;2023-11-18T12:08:13;13.68;;;3.92;;
53833;SDS011;39735;51.432;5.482;2023-11-18T12:10:38;20.70;;;3.28;;
53833;SDS011;39735;51.432;5.482;2023-11-18T12:13:09;22.60;;;3.78;;
53833;SDS011;39735;51.432;5.482;2023-11-18T12:15:47;20.80;;;3.00;;
53833;SDS011;39735;51.432;5.482;2023-11-18T12:18:13;9.93;;;2.65;;
53833;SDS011;39735;51.432;5.482;2023-11-18T12:20:42;17.63;;;4.57;;
53833;SDS011;39735;51.432;5.482;2023-11-18T12:23:12;21.25;;;1.95;;
53833;SDS011;39735;51.432;5.482;2023-11-18T12:25:43;13.18;;;2.67;;
53833;SDS011;39735;51.432;5.482;2023-11-18T12:28:31;12.35;;;2.63;;
53833;SDS011;39735;51.432;5.482;2023-11-18T12:30:59;8.32;;;3.65;;
53833;SDS011;39735;51.432;5.482;2023-11-18T12:39:01;12.98;;;2.72;;
53833;SDS011;39735;51.432;5.482;2023-11-18T12:49:18;14.25;;;2.92;;
53833;SDS011;39735;51.432;5.482;2023-11-18T12:51:49;23.50;;;3.08;;
53833;SDS011;39735;51.432;5.482;2023-11-18T12:54:14;15.90;;;2.45;;
53833;SDS011;39735;51.432;5.482;2023-11-18T12:56:41;12.90;;;2.33;;
53833;SDS011;39735;51.432;5.482;2023-11-18T12:59:11;7.45;;;1.83;;
53833;SDS011;39735;51.432;5.482;2023-11-18T13:01:38;3.35;;;2.30;;
53833;SDS011;39735;51.432;5.482;2023-11-18T13:04:03;7.85;;;1.80;;
53833;SDS011;39735;51.432;5.482;2023-11-18T13:06:28;18.77;;;3.88;;
53833;SDS011;39735;51.432;5.482;2023-11-18T13:08:54;7.47;;;2.25;;
53833;SDS011;39735;51.432;5.482;2023-11-18T13:11:21;21.05;;;3.72;;
53833;SDS011;39735;51.432;5.482;2023-11-18T13:13:48;7.10;;;1.88;;
53833;SDS011;39735;51.432;5.482;2023-11-18T13:16:14;5.30;;;2.00;;
53833;SDS011;39735;51.432;5.482;2023-11-18T13:18:46;20.30;;;2.70;;
53833;SDS011;39735;51.432;5.482;2023-11-18T13:23:40;9.00;;;1.65;;
53833;SDS011;39735;51.432;5.482;2023-11-18T13:26:06;7.93;;;2.25;;
53833;SDS011;39735;51.432;5.482;2023-11-18T13:28:34;2.03;;;1.90;;
53833;SDS011;39735;51.432;5.482;2023-11-18T13:31:00;3.10;;;2.08;;
53833;SDS011;39735;51.432;5.482;2023-11-18T13:33:26;14.63;;;1.92;;
53833;SDS011;39735;51.432;5.482;2023-11-18T13:35:51;8.55;;;2.85;;
53833;SDS011;39735;51.432;5.482;2023-11-18T13:38:17;3.53;;;1.33;;
53833;SDS011;39735;51.432;5.482;2023-11-18T13:40:47;2.05;;;1.95;;
53833;SDS011;39735;51.432;5.482;2023-11-18T13:43:12;14.85;;;2.90;;
53833;SDS011;39735;51.432;5.482;2023-11-18T13:45:37;5.82;;;1.55;;
53833;SDS011;39735;51.432;5.482;2023-11-18T13:48:04;1.67;;;1.58;;
53833;SDS011;39735;51.432;5.482;2023-11-18T13:50:30;1.48;;;1.38;;
53833;SDS011;39735;51.432;5.482;2023-11-18T13:52:55;2.80;;;1.52;;
53833;SDS011;39735;51.432;5.482;2023-11-18T13:55:21;1.85;;;1.20;;
53833;SDS011;39735;51.432;5.482;2023-11-18T13:57:56;2.80;;;2.58;;
53833;SDS011;39735;51.432;5.482;2023-11-18T14:00:23;18.23;;;2.78;;
53833;SDS011;39735;51.432;5.482;2023-11-18T14:02:51;1.42;;;1.42;;
53833;SDS011;39735;51.432;5.482;2023-11-18T14:05:17;2.17;;;0.93;;
53833;SDS011;39735;51.432;5.482;2023-11-18T14:07:45;2.95;;;1.05;;
53833;SDS011;39735;51.432;5.482;2023-11-18T14:10:10;15.43;;;2.92;;
53833;SDS011;39735;51.432;5.482;2023-11-18T14:12:38;2.58;;;1.13;;
53833;SDS011;39735;51.432;5.482;2023-11-18T14:15:04;2.65;;;1.45;;
53833;SDS011;39735;51.432;5.482;2023-11-18T14:17:30;4.50;;;1.90;;
53833;SDS011;39735;51.432;5.482;2023-11-18T14:19:55;3.80;;;1.48;;
53833;SDS011;39735;51.432;5.482;2023-11-18T14:22:20;3.03;;;0.77;;
53833;SDS011;39735;51.432;5.482;2023-11-18T14:24:46;6.05;;;1.00;;
53833;SDS011;39735;51.432;5.482;2023-11-18T14:27:12;1.80;;;0.77;;
53833;SDS011;39735;51.432;5.482;2023-11-18T14:29:38;4.00;;;2.03;;
53833;SDS011;39735;51.432;5.482;2023-11-18T14:32:04;0.50;;;0.50;;
53833;SDS011;39735;51.432;5.482;2023-11-18T14:34:29;1.08;;;0.88;;
53833;SDS011;39735;51.432;5.482;2023-11-18T14:36:54;2.28;;;1.23;;
53833;SDS011;39735;51.432;5.482;2023-11-18T14:39:21;4.18;;;0.90;;
53833;SDS011;39735;51.432;5.482;2023-11-18T14:41:47;1.23;;;0.52;;
53833;SDS011;39735;51.432;5.482;2023-11-18T14:44:12;6.13;;;0.45;;
53833;SDS011;39735;51.432;5.482;2023-11-18T14:46:38;0.90;;;0.55;;
53833;SDS011;39735;51.432;5.482;2023-11-18T14:49:04;12.95;;;2.78;;
53833;SDS011;39735;51.432;5.482;2023-11-18T14:51:30;0.38;;;0.38;;